sensor_id;sensor_type;location;lat;lon;timestamp;P1;durP1;ratioP1;P2;durP2;ratioP2
36555;SDS011;40859;50.560;7.268;2022-09-03T03:13:11;8.38;;;1.73;;
36555;SDS011;40859;50.560;7.268;2022-09-03T03:15:38;12.68;;;1.98;;
36555;SDS011;40859;50.560;7.268;2022-09-03T03:18:04;13.80;;;2.25;;
36555;SDS011;40859;50.560;7.268;2022-09-03T03:20:31;12.27;;;2.33;;
36555;SDS011;40859;50.560;7.268;2022-09-03T03:23:00;7.40;;;1.48;;
36555;SDS011;40859;50.560;7.268;2022-09-03T03:25:26;2.92;;;1.30;;
36555;SDS011;40859;50.560;7.268;2022-09-03T03:27:55;12.20;;;1.80;;
36555;SDS011;40859;50.560;7.268;2022-09-03T03:30:21;7.25;;;1.67;;
36555;SDS011;40859;50.560;7.268;2022-09-03T03:32:47;4.00;;;1.42;;
36555;SDS011;40859;50.560;7.268;2022-09-03T03:35:13;7.25;;;1.70;;
36555;SDS011;40859;50.560;7.268;2022-09-03T03:37:39;3.70;;;1.67;;
36555;SDS011;40859;50.560;7.268;2022-09-03T03:40:05;6.45;;;1.40;;
36555;SDS011;40859;50.560;7.268;2022-09-03T03:42:32;4.60;;;1.15;;
36555;SDS011;40859;50.560;7.268;2022-09-03T03:44:58;8.43;;;1.50;;
36555;SDS011;40859;50.560;7.268;2022-09-03T03:47:27;2.05;;;1.08;;
36555;SDS011;40859;50.560;7.268;2022-09-03T03:49:55;4.25;;;2.05;;
36555;SDS011;40859;50.560;7.268;2022-09-03T03:52:22;2.35;;;1.10;;
36555;SDS011;40859;50.560;7.268;2022-09-03T03:54:49;2.70;;;1.25;;
36555;SDS011;40859;50.560;7.268;2022-09-03T03:57:16;2.25;;;1.08;;
36555;SDS011;40859;50.560;7.268;2022-09-03T03:59:47;6.18;;;1.42;;
36555;SDS011;40859;50.560;7.268;2022-09-03T04:02:13;3.72;;;1.27;;
36555;SDS011;40859;50.560;7.268;2022-09-03T04:04:40;8.63;;;1.65;;
36555;SDS011;40859;50.560;7.268;2022-09-03T04:07:05;7.22;;;1.35;;
36555;SDS011;40859;50.560;7.268;2022-09-03T04:09:32;2.42;;;1.25;;
36555;SDS011;40859;50.560;7.268;2022-09-03T04:11:58;1.95;;;1.05;;
36555;SDS011;40859;50.560;7.268;2022-09-03T04:14:24;2.35;;;1.23;;
36555;SDS011;40859;50.560;7.268;2022-09-03T04:16:51;3.42;;;1.00;;
36555;SDS011;40859;50.560;7.268;2022-09-03T04:19:18;2.28;;;1.15;;
36555;SDS011;40859;50.560;7.268;2022-09-03T04:21:44;2.58;;;1.00;;
36555;SDS011;40859;50.560;7.268;2022-09-03T04:24:10;2.87;;;1.10;;
36555;SDS011;40859;50.560;7.268;2022-09-03T04:26:36;2.85;;;1.15;;
36555;SDS011;40859;50.560;7.268;2022-09-03T04:29:05;4.70;;;1.08;;
36555;SDS011;40859;50.560;7.268;2022-09-03T04:31:33;2.15;;;1.15;;
36555;SDS011;40859;50.560;7.268;2022-09-03T04:34:02;3.72;;;1.25;;
36555;SDS011;40859;50.560;7.268;2022-09-03T04:36:30;4.57;;;1.17;;
36555;SDS011;40859;50.560;7.268;2022-09-03T04:38:59;3.03;;;0.95;;
36555;SDS011;40859;50.560;7.268;2022-09-03T04:41:29;2.47;;;1.15;;
36555;SDS011;40859;50.560;7.268;2022-09-03T04:43:56;8.35;;;2.05;;
36555;SDS011;40859;50.560;7.268;2022-09-03T04:46:24;2.97;;;1.37;;
36555;SDS011;40859;50.560;7.268;2022-09-03T04:48:55;5.28;;;1.30;;
36555;SDS011;40859;50.560;7.268;2022-09-03T04:51:23;3.25;;;1.27;;
36555;SDS011;40859;50.560;7.268;2022-09-03T04:53:58;6.90;;;1.42;;
36555;SDS011;40859;50.560;7.268;2022-09-03T04:56:26;2.65;;;1.37;;
36555;SDS011;40859;50.560;7.268;2022-09-03T04:58:54;2.47;;;1.10;;
36555;SDS011;40859;50.560;7.268;2022-09-03T05:01:22;2.70;;;1.17;;
36555;SDS011;40859;50.560;7.268;2022-09-03T05:03:49;2.62;;;1.42;;
36555;SDS011;40859;50.560;7.268;2022-09-03T05:06:16;2.95;;;1.40;;
36555;SDS011;40859;50.560;7.268;2022-09-03T05:08:43;3.80;;;1.95;;
36555;SDS011;40859;50.560;7.268;2022-09-03T05:11:13;4.90;;;2.12;;
36555;SDS011;40859;50.560;7.268;2022-09-03T05:13:39;1.35;;;1.08;;
36555;SDS011;40859;50.560;7.268;2022-09-03T05:16:06;2.78;;;1.10;;
36555;SDS011;40859;50.560;7.268;2022-09-03T05:18:33;3.17;;;1.30;;
36555;SDS011;40859;50.560;7.268;2022-09-03T05:21:00;2.90;;;1.27;;
36555;SDS011;40859;50.560;7.268;2022-09-03T05:23:31;4.20;;;1.30;;
36555;SDS011;40859;50.560;7.268;2022-09-03T05:26:01;1.37;;;0.95;;
36555;SDS011;40859;50.560;7.268;2022-09-03T05:28:33;4.70;;;1.20;;
36555;SDS011;40859;50.560;7.268;2022-09-03T05:31:05;5.87;;;1.48;;
36555;SDS011;40859;50.560;7.268;2022-09-03T05:33:36;2.45;;;1.08;;
36555;SDS011;40859;50.560;7.268;2022-09-03T05:36:04;7.45;;;1.27;;
36555;SDS011;40859;50.560;7.268;2022-09-03T05:38:35;5.18;;;1.00;;
36555;SDS011;40859;50.560;7.268;2022-09-03T05:41:02;2.10;;;1.45;;
36555;SDS011;40859;50.560;7.268;2022-09-03T05:43:30;9.80;;;1.98;;
36555;SDS011;40859;50.560;7.268;2022-09-03T05:46:00;11.65;;;2.15;;
36555;SDS011;40859;50.560;7.268;2022-09-03T05:50:58;5.60;;;1.52;;
36555;SDS011;40859;50.560;7.268;2022-09-03T05:53:25;7.22;;;1.48;;
36555;SDS011;40859;50.560;7.268;2022-09-03T05:55:59;6.55;;;1.33;;
36555;SDS011;40859;50.560;7.268;2022-09-03T05:58:33;2.53;;;1.58;;
36555;SDS011;40859;50.560;7.268;2022-09-03T06:01:13;3.25;;;1.33;;
36555;SDS011;40859;50.560;7.268;2022-09-03T06:03:44;2.78;;;1.05;;
36555;SDS011;40859;50.560;7.268;2022-09-03T06:06:12;5.93;;;1.27;;
36555;SDS011;40859;50.560;7.268;2022-09-03T06:08:38;6.45;;;1.42;;
36555;SDS011;40859;50.560;7.268;2022-09-03T06:11:05;4.60;;;1.00;;
36555;SDS011;40859;50.560;7.268;2022-09-03T06:13:32;7.50;;;1.15;;
36555;SDS011;40859;50.560;7.268;2022-09-03T06:15:59;5.78;;;1.08;;
36555;SDS011;40859;50.560;7.268;2022-09-03T06:18:27;2.85;;;1.10;;
36555;SDS011;40859;50.560;7.268;2022-09-03T06:20:55;4.75;;;0.95;;
36555;SDS011;40859;50.560;7.268;2022-09-03T06:23:22;7.87;;;1.73;;
36555;SDS011;40859;50.560;7.268;2022-09-03T06:26:49;9.52;;;1.77;;
36555;SDS011;40859;50.560;7.268;2022-09-03T06:31:43;11.90;;;2.00;;
36555;SDS011;40859;50.560;7.268;2022-09-03T06:34:10;2.12;;;1.42;;
36555;SDS011;40859;50.560;7.268;2022-09-03T06:36:36;4.97;;;1.17;;
36555;SDS011;40859;50.560;7.268;2022-09-03T06:39:02;5.85;;;1.30;;
36555;SDS011;40859;50.560;7.268;2022-09-03T06:41:30;8.02;;;1.70;;
36555;SDS011;40859;50.560;7.268;2022-09-03T06:43:59;9.50;;;1.40;;
36555;SDS011;40859;50.560;7.268;2022-09-03T06:46:27;2.80;;;1.17;;
36555;SDS011;40859;50.560;7.268;2022-09-03T06:48:55;10.80;;;1.55;;
36555;SDS011;40859;50.560;7.268;2022-09-03T06:51:22;13.95;;;3.00;;
36555;SDS011;40859;50.560;7.268;2022-09-03T06:53:51;9.57;;;1.60;;
36555;SDS011;40859;50.560;7.268;2022-09-03T06:56:22;6.35;;;1.48;;
36555;SDS011;40859;50.560;7.268;2022-09-03T06:58:52;9.35;;;1.55;;
36555;SDS011;40859;50.560;7.268;2022-09-03T07:01:24;11.70;;;1.90;;
36555;SDS011;40859;50.560;7.268;2022-09-03T07:03:53;10.10;;;1.80;;
36555;SDS011;40859;50.560;7.268;2022-09-03T07:06:21;3.87;;;1.55;;
36555;SDS011;40859;50.560;7.268;2022-09-03T07:08:52;7.10;;;1.70;;
36555;SDS011;40859;50.560;7.268;2022-09-03T07:11:21;9.45;;;1.40;;
36555;SDS011;40859;50.560;7.268;2022-09-03T07:13:50;9.60;;;1.87;;
36555;SDS011;40859;50.560;7.268;2022-09-03T07:16:22;6.65;;;1.35;;
36555;SDS011;40859;50.560;7.268;2022-09-03T07:18:50;12.57;;;1.80;;
36555;SDS011;40859;50.560;7.268;2022-09-03T07:21:17;7.20;;;1.67;;
36555;SDS011;40859;50.560;7.268;2022-09-03T07:23:45;5.70;;;1.17;;
36555;SDS011;40859;50.560;7.268;2022-09-03T07:26:16;16.48;;;1.50;;
36555;SDS011;40859;50.560;7.268;2022-09-03T07:28:46;10.38;;;1.50;;
36555;SDS011;40859;50.560;7.268;2022-09-03T07:31:14;7.30;;;1.30;;
36555;SDS011;40859;50.560;7.268;2022-09-03T07:33:45;9.73;;;1.85;;
36555;SDS011;40859;50.560;7.268;2022-09-03T07:36:15;5.35;;;1.50;;
36555;SDS011;40859;50.560;7.268;2022-09-03T07:38:42;8.70;;;1.77;;
36555;SDS011;40859;50.560;7.268;2022-09-03T07:41:09;10.68;;;2.90;;
36555;SDS011;40859;50.560;7.268;2022-09-03T07:43:43;16.58;;;2.15;;
36555;SDS011;40859;50.560;7.268;2022-09-03T07:46:14;9.52;;;1.60;;
36555;SDS011;40859;50.560;7.268;2022-09-03T07:48:48;9.45;;;1.60;;
36555;SDS011;40859;50.560;7.268;2022-09-03T07:51:16;9.40;;;1.35;;
36555;SDS011;40859;50.560;7.268;2022-09-03T07:53:47;4.43;;;1.15;;
36555;SDS011;40859;50.560;7.268;2022-09-03T07:56:13;7.18;;;2.25;;
36555;SDS011;40859;50.560;7.268;2022-09-03T07:58:40;8.32;;;2.17;;
36555;SDS011;40859;50.560;7.268;2022-09-03T08:01:07;8.13;;;1.73;;
36555;SDS011;40859;50.560;7.268;2022-09-03T08:03:34;4.40;;;1.25;;
36555;SDS011;40859;50.560;7.268;2022-09-03T08:06:01;8.38;;;1.52;;
36555;SDS011;40859;50.560;7.268;2022-09-03T08:08:29;14.65;;;1.50;;
36555;SDS011;40859;50.560;7.268;2022-09-03T08:11:16;8.45;;;1.70;;
36555;SDS011;40859;50.560;7.268;2022-09-03T08:14:03;19.15;;;1.83;;
36555;SDS011;40859;50.560;7.268;2022-09-03T08:16:32;5.43;;;2.00;;
36555;SDS011;40859;50.560;7.268;2022-09-03T08:19:00;3.80;;;1.52;;
36555;SDS011;40859;50.560;7.268;2022-09-03T08:21:26;7.12;;;2.03;;
36555;SDS011;40859;50.560;7.268;2022-09-03T08:23:52;8.88;;;2.50;;
36555;SDS011;40859;50.560;7.268;2022-09-03T08:26:26;4.80;;;1.70;;
36555;SDS011;40859;50.560;7.268;2022-09-03T08:28:57;7.93;;;1.95;;
36555;SDS011;40859;50.560;7.268;2022-09-03T08:31:23;9.40;;;1.87;;
36555;SDS011;40859;50.560;7.268;2022-09-03T08:33:51;9.95;;;1.98;;
36555;SDS011;40859;50.560;7.268;2022-09-03T08:36:19;2.28;;;1.42;;
36555;SDS011;40859;50.560;7.268;2022-09-03T08:38:47;6.28;;;1.60;;
36555;SDS011;40859;50.560;7.268;2022-09-03T08:41:15;12.63;;;2.22;;
36555;SDS011;40859;50.560;7.268;2022-09-03T08:44:08;8.77;;;1.60;;
36555;SDS011;40859;50.560;7.268;2022-09-03T08:50:44;6.25;;;1.73;;
36555;SDS011;40859;50.560;7.268;2022-09-03T08:53:22;7.20;;;1.77;;
36555;SDS011;40859;50.560;7.268;2022-09-03T08:56:17;5.97;;;2.10;;
36555;SDS011;40859;50.560;7.268;2022-09-03T08:58:48;5.12;;;1.62;;
36555;SDS011;40859;50.560;7.268;2022-09-03T09:01:34;8.32;;;2.22;;
36555;SDS011;40859;50.560;7.268;2022-09-03T09:05:37;12.07;;;1.92;;
36555;SDS011;40859;50.560;7.268;2022-09-03T09:08:17;6.37;;;1.55;;
36555;SDS011;40859;50.560;7.268;2022-09-03T09:11:14;9.30;;;1.70;;
36555;SDS011;40859;50.560;7.268;2022-09-03T10:09:30;15.88;;;1.98;;
36555;SDS011;40859;50.560;7.268;2022-09-03T10:12:31;11.55;;;1.80;;
36555;SDS011;40859;50.560;7.268;2022-09-03T10:15:09;14.13;;;2.45;;
36555;SDS011;40859;50.560;7.268;2022-09-03T10:18:11;9.93;;;2.10;;
36555;SDS011;40859;50.560;7.268;2022-09-03T10:20:53;83.57;;;4.65;;
36555;SDS011;40859;50.560;7.268;2022-09-03T10:23:29;18.40;;;1.80;;
36555;SDS011;40859;50.560;7.268;2022-09-03T10:26:06;10.60;;;1.55;;
36555;SDS011;40859;50.560;7.268;2022-09-03T10:28:38;8.95;;;2.22;;
36555;SDS011;40859;50.560;7.268;2022-09-03T10:31:44;5.65;;;1.50;;
36555;SDS011;40859;50.560;7.268;2022-09-03T10:35:10;7.05;;;1.60;;
36555;SDS011;40859;50.560;7.268;2022-09-03T10:38:28;25.15;;;2.33;;
36555;SDS011;40859;50.560;7.268;2022-09-03T10:41:38;14.18;;;2.10;;
36555;SDS011;40859;50.560;7.268;2022-09-03T10:44:43;19.37;;;2.00;;
36555;SDS011;40859;50.560;7.268;2022-09-03T10:57:13;39.03;;;4.35;;
36555;SDS011;40859;50.560;7.268;2022-09-03T11:00:10;38.88;;;3.50;;
36555;SDS011;40859;50.560;7.268;2022-09-03T11:06:58;28.58;;;2.85;;
36555;SDS011;40859;50.560;7.268;2022-09-03T11:09:32;37.95;;;3.25;;
36555;SDS011;40859;50.560;7.268;2022-09-03T11:12:16;91.30;;;8.40;;
36555;SDS011;40859;50.560;7.268;2022-09-03T11:15:04;53.00;;;5.82;;
36555;SDS011;40859;50.560;7.268;2022-09-03T11:19:05;57.67;;;6.07;;
36555;SDS011;40859;50.560;7.268;2022-09-03T11:21:35;38.30;;;6.07;;
36555;SDS011;40859;50.560;7.268;2022-09-03T11:24:16;85.15;;;9.43;;
36555;SDS011;40859;50.560;7.268;2022-09-03T11:26:49;51.05;;;6.55;;
36555;SDS011;40859;50.560;7.268;2022-09-03T11:29:29;44.03;;;5.90;;
36555;SDS011;40859;50.560;7.268;2022-09-03T11:32:08;43.80;;;5.15;;
36555;SDS011;40859;50.560;7.268;2022-09-03T11:34:44;41.55;;;5.60;;
36555;SDS011;40859;50.560;7.268;2022-09-03T11:37:19;33.30;;;4.87;;
36555;SDS011;40859;50.560;7.268;2022-09-03T11:39:53;46.97;;;6.37;;
36555;SDS011;40859;50.560;7.268;2022-09-03T11:42:43;29.73;;;4.93;;
36555;SDS011;40859;50.560;7.268;2022-09-03T11:45:23;40.30;;;4.85;;
36555;SDS011;40859;50.560;7.268;2022-09-03T11:48:00;54.45;;;4.72;;
36555;SDS011;40859;50.560;7.268;2022-09-03T11:50:30;35.95;;;4.82;;
36555;SDS011;40859;50.560;7.268;2022-09-03T11:59:00;29.58;;;4.95;;
36555;SDS011;40859;50.560;7.268;2022-09-03T12:01:51;31.60;;;5.25;;
36555;SDS011;40859;50.560;7.268;2022-09-03T12:04:43;36.83;;;5.87;;
36555;SDS011;40859;50.560;7.268;2022-09-03T12:08:18;32.80;;;5.40;;
36555;SDS011;40859;50.560;7.268;2022-09-03T12:17:58;25.52;;;4.55;;
36555;SDS011;40859;50.560;7.268;2022-09-03T12:20:45;31.42;;;5.00;;
36555;SDS011;40859;50.560;7.268;2022-09-03T12:23:27;25.58;;;4.93;;
36555;SDS011;40859;50.560;7.268;2022-09-03T12:26:00;35.10;;;4.07;;
36555;SDS011;40859;50.560;7.268;2022-09-03T12:28:34;31.40;;;4.93;;
36555;SDS011;40859;50.560;7.268;2022-09-03T12:34:13;24.10;;;3.87;;
36555;SDS011;40859;50.560;7.268;2022-09-03T12:36:42;39.95;;;4.97;;
36555;SDS011;40859;50.560;7.268;2022-09-03T12:39:15;19.30;;;4.20;;
36555;SDS011;40859;50.560;7.268;2022-09-03T12:47:43;21.62;;;4.03;;
36555;SDS011;40859;50.560;7.268;2022-09-03T12:50:13;18.65;;;3.45;;
36555;SDS011;40859;50.560;7.268;2022-09-03T12:52:43;27.17;;;4.68;;
36555;SDS011;40859;50.560;7.268;2022-09-03T12:55:26;27.58;;;3.78;;
36555;SDS011;40859;50.560;7.268;2022-09-03T12:58:23;15.90;;;3.10;;
36555;SDS011;40859;50.560;7.268;2022-09-03T13:01:10;16.27;;;4.25;;
36555;SDS011;40859;50.560;7.268;2022-09-03T13:03:54;25.35;;;3.72;;
36555;SDS011;40859;50.560;7.268;2022-09-03T13:07:13;10.45;;;3.30;;
36555;SDS011;40859;50.560;7.268;2022-09-03T13:09:51;14.52;;;2.67;;
36555;SDS011;40859;50.560;7.268;2022-09-03T13:12:28;31.48;;;3.37;;
36555;SDS011;40859;50.560;7.268;2022-09-03T13:14:57;15.30;;;2.92;;
36555;SDS011;40859;50.560;7.268;2022-09-03T13:18:07;27.73;;;4.35;;
36555;SDS011;40859;50.560;7.268;2022-09-03T13:20:53;15.88;;;2.47;;
36555;SDS011;40859;50.560;7.268;2022-09-03T13:24:02;11.88;;;2.85;;
36555;SDS011;40859;50.560;7.268;2022-09-03T13:28:07;12.18;;;3.53;;
36555;SDS011;40859;50.560;7.268;2022-09-03T13:32:35;6.32;;;2.37;;
36555;SDS011;40859;50.560;7.268;2022-09-03T13:35:25;14.55;;;2.45;;
36555;SDS011;40859;50.560;7.268;2022-09-03T13:37:55;9.32;;;1.55;;
36555;SDS011;40859;50.560;7.268;2022-09-03T13:44:04;8.55;;;2.35;;
36555;SDS011;40859;50.560;7.268;2022-09-03T13:46:46;9.18;;;1.90;;
36555;SDS011;40859;50.560;7.268;2022-09-03T13:51:44;6.03;;;1.92;;
36555;SDS011;40859;50.560;7.268;2022-09-03T13:54:19;6.25;;;2.08;;
36555;SDS011;40859;50.560;7.268;2022-09-03T13:57:01;8.73;;;2.00;;
36555;SDS011;40859;50.560;7.268;2022-09-03T14:12:42;8.10;;;1.70;;
36555;SDS011;40859;50.560;7.268;2022-09-03T14:15:30;8.77;;;2.12;;
36555;SDS011;40859;50.560;7.268;2022-09-03T14:18:55;16.77;;;2.05;;
36555;SDS011;40859;50.560;7.268;2022-09-03T14:21:47;7.93;;;1.73;;
36555;SDS011;40859;50.560;7.268;2022-09-03T14:24:20;13.57;;;2.28;;
36555;SDS011;40859;50.560;7.268;2022-09-03T14:27:05;12.18;;;2.00;;
36555;SDS011;40859;50.560;7.268;2022-09-03T14:29:32;11.10;;;1.92;;
36555;SDS011;40859;50.560;7.268;2022-09-03T14:32:47;5.78;;;1.52;;
36555;SDS011;40859;50.560;7.268;2022-09-03T14:36:11;12.50;;;1.65;;
36555;SDS011;40859;50.560;7.268;2022-09-03T14:45:11;5.90;;;1.77;;
36555;SDS011;40859;50.560;7.268;2022-09-03T14:49:19;6.28;;;1.98;;
36555;SDS011;40859;50.560;7.268;2022-09-03T14:55:20;11.12;;;1.67;;
36555;SDS011;40859;50.560;7.268;2022-09-03T14:59:31;5.35;;;1.80;;
36555;SDS011;40859;50.560;7.268;2022-09-03T15:05:26;15.57;;;1.60;;
36555;SDS011;40859;50.560;7.268;2022-09-03T15:08:47;10.00;;;1.80;;
36555;SDS011;40859;50.560;7.268;2022-09-03T15:11:24;8.88;;;1.95;;
36555;SDS011;40859;50.560;7.268;2022-09-03T15:18:43;6.60;;;1.87;;
36555;SDS011;40859;50.560;7.268;2022-09-03T15:22:13;6.50;;;1.87;;
36555;SDS011;40859;50.560;7.268;2022-09-03T15:30:09;4.25;;;1.27;;
36555;SDS011;40859;50.560;7.268;2022-09-03T15:32:53;5.12;;;1.25;;
36555;SDS011;40859;50.560;7.268;2022-09-03T15:36:23;6.90;;;1.20;;
36555;SDS011;40859;50.560;7.268;2022-09-03T15:39:08;3.40;;;1.27;;
36555;SDS011;40859;50.560;7.268;2022-09-03T15:45:02;6.53;;;1.50;;
36555;SDS011;40859;50.560;7.268;2022-09-03T15:48:16;3.87;;;1.60;;
36555;SDS011;40859;50.560;7.268;2022-09-03T15:54:09;7.80;;;1.60;;
36555;SDS011;40859;50.560;7.268;2022-09-03T16:02:37;4.37;;;1.58;;
36555;SDS011;40859;50.560;7.268;2022-09-03T16:08:51;7.40;;;2.35;;
36555;SDS011;40859;50.560;7.268;2022-09-03T16:15:28;13.40;;;2.50;;
36555;SDS011;40859;50.560;7.268;2022-09-03T16:22:31;12.93;;;2.47;;
36555;SDS011;40859;50.560;7.268;2022-09-03T16:25:11;11.40;;;2.08;;
36555;SDS011;40859;50.560;7.268;2022-09-03T16:28:10;13.30;;;1.87;;
36555;SDS011;40859;50.560;7.268;2022-09-03T16:31:02;12.80;;;2.33;;
36555;SDS011;40859;50.560;7.268;2022-09-03T16:33:43;23.92;;;2.22;;
36555;SDS011;40859;50.560;7.268;2022-09-03T16:36:31;10.63;;;1.80;;
36555;SDS011;40859;50.560;7.268;2022-09-03T16:40:18;18.42;;;2.80;;
36555;SDS011;40859;50.560;7.268;2022-09-03T16:45:30;22.40;;;2.45;;
36555;SDS011;40859;50.560;7.268;2022-09-03T16:48:42;22.90;;;1.83;;
36555;SDS011;40859;50.560;7.268;2022-09-03T16:58:21;6.68;;;1.62;;
36555;SDS011;40859;50.560;7.268;2022-09-03T17:07:59;7.80;;;1.52;;
36555;SDS011;40859;50.560;7.268;2022-09-03T17:14:11;13.35;;;1.65;;
36555;SDS011;40859;50.560;7.268;2022-09-03T17:17:15;14.93;;;1.70;;
36555;SDS011;40859;50.560;7.268;2022-09-03T17:20:18;8.38;;;1.77;;
36555;SDS011;40859;50.560;7.268;2022-09-03T17:24:35;9.85;;;2.03;;
36555;SDS011;40859;50.560;7.268;2022-09-03T17:42:01;3.70;;;1.37;;
36555;SDS011;40859;50.560;7.268;2022-09-03T17:44:46;5.60;;;2.12;;
36555;SDS011;40859;50.560;7.268;2022-09-03T17:48:24;5.37;;;1.40;;
36555;SDS011;40859;50.560;7.268;2022-09-03T17:55:49;8.77;;;1.95;;
36555;SDS011;40859;50.560;7.268;2022-09-03T17:59:52;8.20;;;1.42;;
36555;SDS011;40859;50.560;7.268;2022-09-03T18:02:32;3.03;;;1.80;;
36555;SDS011;40859;50.560;7.268;2022-09-03T18:05:16;4.68;;;2.75;;
36555;SDS011;40859;50.560;7.268;2022-09-03T18:07:49;17.50;;;7.25;;
36555;SDS011;40859;50.560;7.268;2022-09-03T18:11:00;15.60;;;6.03;;
36555;SDS011;40859;50.560;7.268;2022-09-03T18:17:42;11.67;;;4.20;;
36555;SDS011;40859;50.560;7.268;2022-09-03T18:20:21;14.13;;;3.87;;
36555;SDS011;40859;50.560;7.268;2022-09-03T19:14:59;6.60;;;2.30;;
36555;SDS011;40859;50.560;7.268;2022-09-03T19:35:17;8.60;;;2.00;;
36555;SDS011;40859;50.560;7.268;2022-09-03T19:41:31;6.40;;;1.90;;
36555;SDS011;40859;50.560;7.268;2022-09-03T19:44:43;5.80;;;2.10;;
36555;SDS011;40859;50.560;7.268;2022-09-03T19:47:54;12.60;;;2.13;;
36555;SDS011;40859;50.560;7.268;2022-09-03T19:52:13;3.30;;;1.40;;
36555;SDS011;40859;50.560;7.268;2022-09-03T19:55:19;5.00;;;1.80;;
36555;SDS011;40859;50.560;7.268;2022-09-03T20:09:09;12.00;;;2.00;;
36555;SDS011;40859;50.560;7.268;2022-09-03T20:11:57;13.05;;;2.30;;
36555;SDS011;40859;50.560;7.268;2022-09-03T20:14:27;6.70;;;1.90;;
36555;SDS011;40859;50.560;7.268;2022-09-03T20:17:04;5.32;;;1.67;;
36555;SDS011;40859;50.560;7.268;2022-09-03T20:20:00;6.73;;;1.93;;
36555;SDS011;40859;50.560;7.268;2022-09-03T20:32:42;6.33;;;2.90;;
36555;SDS011;40859;50.560;7.268;2022-09-03T20:38:25;4.82;;;1.48;;
36555;SDS011;40859;50.560;7.268;2022-09-03T20:41:13;4.73;;;1.63;;
36555;SDS011;40859;50.560;7.268;2022-09-03T20:53:59;3.23;;;1.40;;
36555;SDS011;40859;50.560;7.268;2022-09-03T20:57:17;4.75;;;1.70;;
36555;SDS011;40859;50.560;7.268;2022-09-03T21:02:45;4.70;;;1.30;;
36555;SDS011;40859;50.560;7.268;2022-09-03T21:14:43;4.80;;;2.20;;
36555;SDS011;40859;50.560;7.268;2022-09-03T21:43:06;7.50;;;1.80;;
36555;SDS011;40859;50.560;7.268;2022-09-03T21:45:50;4.60;;;2.00;;
36555;SDS011;40859;50.560;7.268;2022-09-03T21:48:25;3.15;;;1.85;;
36555;SDS011;40859;50.560;7.268;2022-09-03T21:53:37;5.97;;;1.80;;
36555;SDS011;40859;50.560;7.268;2022-09-03T22:02:29;4.30;;;1.90;;
36555;SDS011;40859;50.560;7.268;2022-09-03T22:04:57;3.40;;;1.60;;
36555;SDS011;40859;50.560;7.268;2022-09-03T22:57:08;2.10;;;1.70;;
36555;SDS011;40859;50.560;7.268;2022-09-03T23:02:09;8.65;;;1.50;;
36555;SDS011;40859;50.560;7.268;2022-09-03T23:15:01;4.00;;;1.40;;
